Nearby METAR Reports

 

KMTN - Baltimore/Martin, Maryland, USA
Distance from station: SSE 8mi, 13km
Updated: Thu, 27-Nov-2014 4:45pm EST
Mostly cloudy
Mostly cloudy
 Wind from NNW
Wind: NNW 5 mph , 7 km/h
Temperature: 39°F , 4°C
Wind Chill: 35°F , 2°C
Dew Point: 30°F , -1°C
Humidity: 70%
Barometer: 30.09 inHg , 1019 hPa
Clouds: Mostly cloudy
Visibility: 10 miles , 16 km
Cloud details: Mostly cloudy 6500 ft
2014/11/27 21:45 KMTN 272145Z 34004KT 10SM BKN065 04/M01 A3009
KDMH - Baltimore/Dwntwn, Maryland, USA
Distance from station: SW 12mi, 19km
Updated: Thu, 27-Nov-2014 4:54pm EST

 
Temperature: 39°F , 4°C
Dew Point: 28°F , -2°C
Humidity: 65%
Barometer: 30.07 inHg , 1018.3 hPa
2014/11/27 21:54 KDMH 272154Z AUTO 04/M02 A3007 RMK AO1 SLP181 T00441022
 
KBWI - Balto/Wash Intl, Maryland, USA
Distance from station: SSW 20mi, 33km
Updated: Thu, 27-Nov-2014 4:54pm EST
Mostly cloudy
Mostly cloudy
 Wind from NW
Wind: NW 3 mph , 6 km/h
Temperature: 39°F , 4°C
Dew Point: 28°F , -2°C
Humidity: 65%
Barometer: 30.07 inHg , 1018.3 hPa
Clouds: Mostly cloudy
Visibility: 10 miles , 16 km
Cloud details: Partly cloudy 3300 ft
Partly cloudy 6500 ft
Mostly cloudy 14000 ft
Mostly cloudy 25000 ft
2014/11/27 21:54 KBWI 272154Z 32003KT 10SM SCT033 SCT065 BKN140 BKN250 04/M02 A3007 RMK AO2 SLP184 VIRGA S AND NW T00441017
KDMW - Carroll Cnty, Maryland, USA
Distance from station: WNW 30mi, 48km
Updated: Thu, 27-Nov-2014 5:30pm EST
Overcast
Overcast
 Wind from WNW
Wind: WNW 3 mph , 6 km/h
Temperature: 36°F , 2°C
Dew Point: 30°F , -1°C
Humidity: 81%
Barometer: 30.07 inHg , 1018.3 hPa
Clouds: Overcast
Visibility: 10 miles , 16 km
Cloud details: Partly cloudy 3000 ft
Mostly cloudy 3500 ft
Overcast 7000 ft
2014/11/27 22:30 KDMW 272230Z AUTO 30003KT 10SM SCT030 BKN035 OVC070 02/M01 A3007 RMK AO2
 
KNAK - Annapolis/Naval, Maryland, USA
Distance from station: S 30mi, 48km
Updated: Thu, 27-Nov-2014 4:54pm EST
Overcast
Overcast
 Wind from NW
Wind: NW 8 mph , 13 km/h
Temperature: 43°F , 6°C
Wind Chill: 38°F , 3°C
Dew Point: 28°F , -2°C
Humidity: 57%
Barometer: 30.08 inHg , 1018.6 hPa
Clouds: Overcast
Visibility: 10 miles , 16 km
Cloud details: Overcast 7000 ft
2014/11/27 21:54 KNAK 272154Z AUTO 32007KT 10SM OVC070 06/M02 A3008 RMK AO2 SLP188 T00611017 $
KW29 - Stevensville, Maryland, USA
Distance from station: SSE 31mi, 50km
Updated: Thu, 27-Nov-2014 5:32pm EST

 Wind from NNW
Wind: NNW 8 mph , 13 km/h
Temperature: 41°F , 5°C
Wind Chill: 36°F , 2°C
Dew Point: 28°F , -2°C
Humidity: 61%
Barometer: 30.09 inHg , 1019 hPa
Visibility: 10 miles , 16 km
2014/11/27 22:32 KW29 272232Z AUTO 33007KT 10SM 05/M02 A3009 RMK AO1
 
KCGS - College Park, Maryland, USA
Distance from station: SW 38mi, 61km
Updated: Thu, 27-Nov-2014 5:30pm EST
Partly cloudy
Partly cloudy
 Wind from NW
Wind: NW 3 mph , 6 km/h
Temperature: 41°F , 5°C
Dew Point: 30°F , -1°C
Humidity: 66%
Barometer: 30.10 inHg , 1019.3 hPa
Clouds: Partly cloudy
Visibility: 10 miles , 16 km
Cloud details: Partly cloudy 7000 ft
2014/11/27 22:30 KCGS 272230Z AUTO 32003KT 10SM SCT070 05/M01 A3010 RMK AO1
KGAI - Gaithersburg, Maryland, USA
Distance from station: WSW 40mi, 65km
Updated: Thu, 27-Nov-2014 5:35pm EST
Clear
Clear
 Wind from WNW
Wind: WNW 5 mph , 7 km/h
Temperature: 34°F , 1°C
Wind Chill: 29°F , -2°C
Dew Point: 27°F , -3°C
Humidity: 75%
Barometer: 30.12 inHg , 1020 hPa
Clouds: Clear
Visibility: 10 miles , 16 km
2014/11/27 22:35 KGAI 272235Z 30004KT 10SM CLR 01/M03 A3012 RMK AO1
 
KTHV - York, Pennsylvania, USA
Distance from station: NNW 40mi, 65km
Updated: Thu, 27-Nov-2014 5:41pm EST
Light snow, Mist, Overcast
Light snow, Mist, Overcast
 Wind from NW
Wind: NW 5 mph , 7 km/h
Temperature: 34°F , 1°C
Wind Chill: 29°F , -2°C
Dew Point: 30°F , -1°C
Humidity: 87%
Barometer: 30.09 inHg , 1019 hPa
Summary: Light snow, Mist
Clouds: Overcast
Visibility: 6 miles , 10 km
Cloud details: Few Clouds 2000 ft
Mostly cloudy 2500 ft
Overcast 3600 ft
2014/11/27 22:41 KTHV 272241Z AUTO 31004KT 6SM -SN BR FEW020 BKN025 OVC036 01/M01 A3009 RMK AO2 SNB38 P0000 T00111006
KFDK - Frederick, Maryland, USA
Distance from station: W 47mi, 75km
Updated: Thu, 27-Nov-2014 5:45pm EST
Overcast
Overcast
 Wind from WNW
Wind: WNW 7 mph , 11 km/h
Temperature: 37°F , 3°C
Wind Chill: 32°F , 0°C
Dew Point: 28°F , -2°C
Humidity: 70%
Barometer: 30.14 inHg , 1020.7 hPa
Clouds: Overcast
Visibility: 10 miles , 16 km
Cloud details: Partly cloudy 7000 ft
Overcast 8000 ft
2014/11/27 22:45 KFDK 272245Z 29006KT 10SM SCT070 OVC080 03/M02 A3014
 
KESN - Easton/Newnam, Maryland, USA
Distance from station: SSE 48mi, 78km
Updated: Thu, 27-Nov-2014 5:50pm EST
Mostly cloudy
Mostly cloudy
 Wind from N
Wind: N 3 mph , 6 km/h
Temperature: 39°F , 4°C
Dew Point: 32°F , 0°C
Humidity: 75%
Barometer: 30.12 inHg , 1020 hPa
Clouds: Mostly cloudy
Visibility: 10 miles , 16 km
Cloud details: Mostly cloudy 6500 ft
2014/11/27 22:50 KESN 272250Z 35003KT 10SM BKN065 04/00 A3012
KDCA - Washington/Natl, Washington D.c., USA
Distance from station: SW 49mi, 79km
Updated: Thu, 27-Nov-2014 4:52pm EST
Mostly cloudy
Mostly cloudy
 Wind from NW
Wind: NW 12 mph , 19 km/h, Gust: 23 mph , 37 km/h
Temperature: 45°F , 7°C
Wind Chill: 39°F , 4°C
Dew Point: 27°F , -3°C
Humidity: 49%
Barometer: 30.10 inHg , 1019.3 hPa
Clouds: Mostly cloudy
Visibility: 10 miles , 16 km
Cloud details: Partly cloudy 5000 ft
Mostly cloudy 6500 ft
2014/11/27 21:52 KDCA 272152Z 31010G20KT 10SM SCT050 BKN065 07/M03 A3010 RMK AO2 SLP192 T00671033
 
KLNS - Lancaster, Pennsylvania, USA
Distance from station: N 49mi, 79km
Updated: Thu, 27-Nov-2014 4:53pm EST
Partly cloudy
Partly cloudy
 Wind from NNW
Wind: NNW 5 mph , 7 km/h
Temperature: 34°F , 1°C
Wind Chill: 29°F , -2°C
Dew Point: 27°F , -3°C
Humidity: 75%
Barometer: 30.06 inHg , 1017.9 hPa
Clouds: Partly cloudy
Visibility: 10 miles , 16 km
Cloud details: Partly cloudy 6500 ft
2014/11/27 21:53 KLNS 272153Z 33004KT 10SM SCT065 01/M03 A3006 RMK AO2 SLP182 T00111028
KILG - Wilmington, Delaware, USA
Distance from station: ENE 50mi, 81km
Updated: Thu, 27-Nov-2014 4:51pm EST
Clear
Clear
 Wind from NW
Wind: NW 9 mph , 15 km/h
Temperature: 36°F , 2°C
Wind Chill: 29°F , -2°C
Dew Point: 28°F , -2°C
Humidity: 75%
Barometer: 30.07 inHg , 1018.3 hPa
Clouds: Clear
Visibility: 10 miles , 16 km
2014/11/27 21:51 KILG 272151Z 32008KT 10SM CLR 02/M02 A3007 RMK AO2 SLP184 T00171022